Waldheim, Canada
Current Conditions -  °F | °C
As of 7:00 PM on Saturday 20 Dec 2014 (Local Time) from CYXE Reporting Station
Light Snow Light Snow  
Wind Chill: 13°   Ceiling: 1100
Heat Index: 21°   Visibility: 8mi
Dew Point: 19°   Wind: 7mph
Humidity: 93%   Direction: 230°SW
Pressure: 29.69"   Gusts: NA
Location:  52.62°N, 106.65°W
Report Text: CYXE 210100Z 23006KT 8SM -SN FEW008 OVC011 M06/M07 A2969 RMK ST2ST6 SLP090
Loading
Personal Weather Stations






























Interactive Weather Map New forecast layout! Learn more

10-Day Weather Forecast

Advertisements
Track Severe Weather on mobile